createdAt,value
2022-11-14T00:00:46.757Z,74.70
2022-11-14T00:15:50.737Z,79.30
2022-11-14T00:30:52.707Z,76.55
2022-11-14T00:45:54.776Z,78.80
2022-11-14T01:00:57.087Z,76.63
2022-11-14T01:16:01.538Z,78.40
2022-11-14T01:31:15.995Z,81.82
2022-11-14T01:46:24.286Z,65.05
2022-11-14T02:01:27.451Z,61.35
2022-11-14T02:16:29.637Z,55.17
2022-11-14T02:31:31.636Z,58.15
2022-11-14T02:46:33.706Z,49.97
2022-11-14T03:01:41.083Z,54.28
2022-11-14T03:16:43.118Z,44.47
2022-11-14T03:31:45.399Z,43.58
2022-11-14T03:46:47.386Z,41.30
2022-11-14T04:01:49.318Z,39.83
2022-11-14T04:16:51.399Z,38.60
2022-11-14T04:31:53.347Z,41.92
2022-11-14T04:46:55.398Z,42.38
2022-11-14T05:01:57.300Z,42.72
2022-11-14T05:16:59.425Z,42.83
2022-11-14T05:32:01.558Z,40.05
2022-11-14T05:47:03.600Z,40.38
2022-11-14T06:02:05.674Z,35.67
2022-11-14T06:17:07.700Z,33.35
2022-11-14T06:32:09.679Z,37.05
2022-11-14T06:47:11.598Z,36.75
2022-11-14T07:02:20.445Z,40.35
2022-11-14T07:17:28.434Z,35.57
2022-11-14T07:32:32.939Z,34.78
2022-11-14T07:47:34.939Z,33.92
2022-11-14T08:02:37.159Z,35.67
2022-11-14T08:17:39.257Z,25.73
2022-11-14T08:32:41.238Z,21.83
2022-11-14T08:47:43.208Z,21.95
2022-11-14T09:02:45.248Z,22.52
2022-11-14T09:17:47.338Z,21.70
2022-11-14T09:32:50.265Z,17.60
2022-11-14T09:48:00.065Z,19.13
2022-11-14T10:03:07.680Z,15.77
2022-11-14T10:18:15.348Z,16.75
2022-11-14T10:33:58.077Z,15.93
2022-11-14T10:49:01.224Z,14.85
2022-11-14T11:04:15.821Z,17.83
2022-11-14T11:19:26.804Z,14.50
2022-11-14T11:34:32.641Z,15.68
2022-11-14T11:49:41.189Z,17.58
2022-11-14T12:04:43.161Z,20.95
2022-11-14T12:19:52.919Z,23.48
2022-11-14T12:34:55.036Z,24.33
2022-11-14T12:49:59.619Z,26.25
2022-11-14T13:05:26.120Z,25.17
2022-11-14T13:20:48.400Z,25.10
2022-11-14T13:35:53.338Z,26.10
2022-11-14T13:51:28.555Z,24.27
2022-11-14T14:06:52.977Z,25.10
2022-11-14T14:22:15.378Z,25.35
2022-11-14T14:37:28.842Z,23.40
2022-11-14T14:52:34.215Z,21.65
2022-11-14T15:07:39.780Z,27.98
2022-11-14T15:22:41.839Z,101.38
2022-11-14T15:38:41.943Z,44.55
2022-11-14T15:53:33.677Z,47.30
2022-11-14T16:08:36.000Z,46.17
2022-11-14T16:23:39.620Z,63.55
2022-11-14T16:38:41.601Z,56.28
2022-11-14T16:53:43.538Z,66.28
2022-11-14T17:08:45.600Z,59.05
2022-11-14T17:23:47.598Z,43.22
2022-11-14T17:38:49.658Z,37.50
2022-11-14T17:53:51.862Z,43.92
2022-11-14T18:09:05.214Z,48.30
2022-11-14T18:24:12.399Z,98.18
2022-11-14T18:39:14.382Z,47.22
2022-11-14T18:54:17.422Z,33.75
2022-11-14T19:09:23.118Z,31.80
2022-11-14T19:24:25.139Z,52.92
2022-11-14T19:39:27.181Z,36.90
2022-11-14T19:54:29.197Z,32.03
2022-11-14T20:09:31.241Z,30.80
2022-11-14T20:24:33.382Z,27.23
2022-11-14T20:39:35.338Z,28.33
2022-11-14T20:54:37.361Z,27.80
2022-11-14T21:09:39.399Z,26.40
2022-11-14T21:24:41.322Z,26.55
2022-11-14T21:39:43.218Z,31.35
2022-11-14T21:54:45.120Z,29.75
2022-11-14T22:09:47.079Z,33.85
2022-11-14T22:24:49.020Z,34.22
2022-11-14T22:39:51.000Z,36.92
2022-11-14T22:54:52.899Z,33.72
2022-11-14T23:09:54.883Z,34.95
2022-11-14T23:24:56.800Z,32.53
2022-11-14T23:39:58.738Z,33.42
2022-11-14T23:55:02.858Z,30.50
